sensor_id;sensor_type;location;lat;lon;timestamp;temperature;humidity
10583;DHT22;33679;51.218;6.786;2024-01-15T00:02:24;5.10;99.90
10583;DHT22;33679;51.218;6.786;2024-01-15T00:04:56;5.00;99.90
10583;DHT22;33679;51.218;6.786;2024-01-15T00:07:29;5.00;99.90
10583;DHT22;33679;51.218;6.786;2024-01-15T00:10:04;4.90;99.90
10583;DHT22;33679;51.218;6.786;2024-01-15T00:12:37;4.80;99.90
10583;DHT22;33679;51.218;6.786;2024-01-15T00:15:09;4.80;99.90
10583;DHT22;33679;51.218;6.786;2024-01-15T00:17:45;4.80;99.90
10583;DHT22;33679;51.218;6.786;2024-01-15T00:20:18;4.80;99.90
10583;DHT22;33679;51.218;6.786;2024-01-15T00:22:52;4.80;99.90
10583;DHT22;33679;51.218;6.786;2024-01-15T00:25:26;4.80;99.90
10583;DHT22;33679;51.218;6.786;2024-01-15T00:27:58;4.80;99.90
10583;DHT22;33679;51.218;6.786;2024-01-15T00:30:32;4.70;99.90
10583;DHT22;33679;51.218;6.786;2024-01-15T00:33:09;4.70;99.90
10583;DHT22;33679;51.218;6.786;2024-01-15T00:35:43;4.70;99.90
10583;DHT22;33679;51.218;6.786;2024-01-15T00:38:16;4.70;99.90
10583;DHT22;33679;51.218;6.786;2024-01-15T00:40:50;4.70;99.90
10583;DHT22;33679;51.218;6.786;2024-01-15T00:43:22;4.80;99.90
10583;DHT22;33679;51.218;6.786;2024-01-15T00:45:55;4.80;99.90
10583;DHT22;33679;51.218;6.786;2024-01-15T00:48:29;4.80;99.90
10583;DHT22;33679;51.218;6.786;2024-01-15T00:51:03;4.80;99.90
10583;DHT22;33679;51.218;6.786;2024-01-15T00:53:36;4.80;99.90
10583;DHT22;33679;51.218;6.786;2024-01-15T00:56:22;4.80;99.90
10583;DHT22;33679;51.218;6.786;2024-01-15T00:58:54;4.80;99.90
10583;DHT22;33679;51.218;6.786;2024-01-15T01:01:29;4.80;99.90
10583;DHT22;33679;51.218;6.786;2024-01-15T01:04:05;4.80;99.90
10583;DHT22;33679;51.218;6.786;2024-01-15T01:06:38;4.80;99.90
10583;DHT22;33679;51.218;6.786;2024-01-15T01:09:13;4.80;99.90
10583;DHT22;33679;51.218;6.786;2024-01-15T01:11:46;4.80;99.90
10583;DHT22;33679;51.218;6.786;2024-01-15T01:14:20;4.90;99.90
10583;DHT22;33679;51.218;6.786;2024-01-15T01:16:52;4.90;99.90
10583;DHT22;33679;51.218;6.786;2024-01-15T01:19:25;4.90;99.90
10583;DHT22;33679;51.218;6.786;2024-01-15T01:21:59;4.90;99.90
10583;DHT22;33679;51.218;6.786;2024-01-15T01:24:31;4.90;99.90
10583;DHT22;33679;51.218;6.786;2024-01-15T01:27:06;4.90;99.90
10583;DHT22;33679;51.218;6.786;2024-01-15T01:29:41;4.90;99.90
10583;DHT22;33679;51.218;6.786;2024-01-15T01:32:15;5.00;99.90
10583;DHT22;33679;51.218;6.786;2024-01-15T01:34:47;5.00;99.90
10583;DHT22;33679;51.218;6.786;2024-01-15T01:37:20;5.00;99.90
10583;DHT22;33679;51.218;6.786;2024-01-15T01:39:52;5.00;99.90
10583;DHT22;33679;51.218;6.786;2024-01-15T01:42:29;5.00;99.90
10583;DHT22;33679;51.218;6.786;2024-01-15T01:45:01;5.00;99.90
10583;DHT22;33679;51.218;6.786;2024-01-15T01:47:39;5.00;99.90
10583;DHT22;33679;51.218;6.786;2024-01-15T01:50:14;5.00;99.90
10583;DHT22;33679;51.218;6.786;2024-01-15T01:52:49;5.00;99.90
10583;DHT22;33679;51.218;6.786;2024-01-15T01:55:24;5.00;99.90
10583;DHT22;33679;51.218;6.786;2024-01-15T01:58:00;5.00;99.90
10583;DHT22;33679;51.218;6.786;2024-01-15T02:00:35;5.00;99.90
10583;DHT22;33679;51.218;6.786;2024-01-15T02:03:10;5.00;99.90
10583;DHT22;33679;51.218;6.786;2024-01-15T02:05:43;5.00;99.90
10583;DHT22;33679;51.218;6.786;2024-01-15T02:08:17;5.00;99.90
10583;DHT22;33679;51.218;6.786;2024-01-15T02:10:50;5.10;99.90
10583;DHT22;33679;51.218;6.786;2024-01-15T02:13:25;5.00;99.90
10583;DHT22;33679;51.218;6.786;2024-01-15T02:15:57;5.00;99.90
10583;DHT22;33679;51.218;6.786;2024-01-15T02:18:44;5.20;99.90
10583;DHT22;33679;51.218;6.786;2024-01-15T02:21:16;5.30;99.90
10583;DHT22;33679;51.218;6.786;2024-01-15T02:23:54;5.30;99.90
10583;DHT22;33679;51.218;6.786;2024-01-15T02:26:29;5.30;99.90
10583;DHT22;33679;51.218;6.786;2024-01-15T02:29:02;5.30;99.90
10583;DHT22;33679;51.218;6.786;2024-01-15T02:31:35;5.20;99.90
10583;DHT22;33679;51.218;6.786;2024-01-15T02:34:08;5.20;99.90
10583;DHT22;33679;51.218;6.786;2024-01-15T02:36:45;5.20;99.90
10583;DHT22;33679;51.218;6.786;2024-01-15T02:39:19;5.20;99.90
10583;DHT22;33679;51.218;6.786;2024-01-15T02:41:52;5.20;99.90
10583;DHT22;33679;51.218;6.786;2024-01-15T02:44:25;5.20;99.90
10583;DHT22;33679;51.218;6.786;2024-01-15T02:46:57;5.20;99.90
10583;DHT22;33679;51.218;6.786;2024-01-15T02:49:30;5.20;99.90
10583;DHT22;33679;51.218;6.786;2024-01-15T02:52:04;5.20;99.90
10583;DHT22;33679;51.218;6.786;2024-01-15T02:54:38;5.30;99.90
10583;DHT22;33679;51.218;6.786;2024-01-15T02:57:11;5.30;99.90
10583;DHT22;33679;51.218;6.786;2024-01-15T02:59:43;5.30;99.90
10583;DHT22;33679;51.218;6.786;2024-01-15T03:02:15;5.30;99.90
10583;DHT22;33679;51.218;6.786;2024-01-15T03:04:51;5.30;99.90
10583;DHT22;33679;51.218;6.786;2024-01-15T03:07:23;5.30;99.90
10583;DHT22;33679;51.218;6.786;2024-01-15T03:09:57;5.30;99.90
10583;DHT22;33679;51.218;6.786;2024-01-15T03:12:29;5.30;99.90
10583;DHT22;33679;51.218;6.786;2024-01-15T03:15:03;5.30;99.90
10583;DHT22;33679;51.218;6.786;2024-01-15T03:17:37;5.30;99.90
10583;DHT22;33679;51.218;6.786;2024-01-15T03:20:11;5.30;99.90
10583;DHT22;33679;51.218;6.786;2024-01-15T03:22:43;5.30;99.90
10583;DHT22;33679;51.218;6.786;2024-01-15T03:25:17;5.30;99.90
10583;DHT22;33679;51.218;6.786;2024-01-15T03:27:53;5.30;99.90
10583;DHT22;33679;51.218;6.786;2024-01-15T03:30:25;5.30;99.90
10583;DHT22;33679;51.218;6.786;2024-01-15T03:32:58;5.30;99.90
10583;DHT22;33679;51.218;6.786;2024-01-15T03:35:31;5.30;99.90
10583;DHT22;33679;51.218;6.786;2024-01-15T03:38:04;5.30;99.90
10583;DHT22;33679;51.218;6.786;2024-01-15T03:40:41;5.30;99.90
10583;DHT22;33679;51.218;6.786;2024-01-15T03:43:13;5.30;99.90
10583;DHT22;33679;51.218;6.786;2024-01-15T03:45:46;5.30;99.90
10583;DHT22;33679;51.218;6.786;2024-01-15T03:48:19;5.30;99.90
10583;DHT22;33679;51.218;6.786;2024-01-15T03:50:51;5.30;99.90
10583;DHT22;33679;51.218;6.786;2024-01-15T03:53:24;5.30;99.90
10583;DHT22;33679;51.218;6.786;2024-01-15T03:55:59;5.30;99.90
10583;DHT22;33679;51.218;6.786;2024-01-15T03:58:32;5.30;99.90
10583;DHT22;33679;51.218;6.786;2024-01-15T04:01:08;5.30;99.90
10583;DHT22;33679;51.218;6.786;2024-01-15T04:03:44;5.30;99.90
10583;DHT22;33679;51.218;6.786;2024-01-15T04:06:18;5.30;99.90
10583;DHT22;33679;51.218;6.786;2024-01-15T04:08:51;5.30;99.90
10583;DHT22;33679;51.218;6.786;2024-01-15T04:11:25;5.40;99.90
10583;DHT22;33679;51.218;6.786;2024-01-15T04:13:57;5.30;99.90
10583;DHT22;33679;51.218;6.786;2024-01-15T04:16:30;5.30;99.90
10583;DHT22;33679;51.218;6.786;2024-01-15T04:19:03;5.40;99.90
10583;DHT22;33679;51.218;6.786;2024-01-15T04:21:35;5.40;99.90
10583;DHT22;33679;51.218;6.786;2024-01-15T04:24:09;5.30;99.90
10583;DHT22;33679;51.218;6.786;2024-01-15T04:26:45;5.20;99.90
10583;DHT22;33679;51.218;6.786;2024-01-15T04:29:18;5.30;99.90
10583;DHT22;33679;51.218;6.786;2024-01-15T04:31:51;5.30;99.90
10583;DHT22;33679;51.218;6.786;2024-01-15T04:34:24;5.30;99.90
10583;DHT22;33679;51.218;6.786;2024-01-15T04:36:57;5.30;99.90
10583;DHT22;33679;51.218;6.786;2024-01-15T04:39:30;5.20;99.90
10583;DHT22;33679;51.218;6.786;2024-01-15T04:42:06;5.30;99.90
10583;DHT22;33679;51.218;6.786;2024-01-15T04:44:39;5.30;99.90
10583;DHT22;33679;51.218;6.786;2024-01-15T04:47:14;5.30;99.90
10583;DHT22;33679;51.218;6.786;2024-01-15T04:49:51;5.40;99.90
10583;DHT22;33679;51.218;6.786;2024-01-15T04:52:24;5.40;99.90
10583;DHT22;33679;51.218;6.786;2024-01-15T04:54:56;5.30;99.90
10583;DHT22;33679;51.218;6.786;2024-01-15T04:57:30;5.30;99.90
10583;DHT22;33679;51.218;6.786;2024-01-15T05:00:03;5.30;99.90
10583;DHT22;33679;51.218;6.786;2024-01-15T05:02:36;5.40;99.90
10583;DHT22;33679;51.218;6.786;2024-01-15T05:05:10;5.30;99.90
10583;DHT22;33679;51.218;6.786;2024-01-15T05:07:42;5.30;99.90
10583;DHT22;33679;51.218;6.786;2024-01-15T05:10:15;5.20;99.90
10583;DHT22;33679;51.218;6.786;2024-01-15T05:12:49;5.20;99.90
10583;DHT22;33679;51.218;6.786;2024-01-15T05:15:21;5.30;99.90
10583;DHT22;33679;51.218;6.786;2024-01-15T05:17:55;5.30;99.90
10583;DHT22;33679;51.218;6.786;2024-01-15T05:20:28;5.30;99.90
10583;DHT22;33679;51.218;6.786;2024-01-15T05:23:01;5.30;99.90
10583;DHT22;33679;51.218;6.786;2024-01-15T05:25:33;5.30;99.90
10583;DHT22;33679;51.218;6.786;2024-01-15T05:28:08;5.40;99.90
10583;DHT22;33679;51.218;6.786;2024-01-15T05:30:41;5.40;99.90
10583;DHT22;33679;51.218;6.786;2024-01-15T05:33:14;5.40;99.90
10583;DHT22;33679;51.218;6.786;2024-01-15T05:35:46;5.40;99.90
10583;DHT22;33679;51.218;6.786;2024-01-15T05:38:20;5.40;99.90
10583;DHT22;33679;51.218;6.786;2024-01-15T05:44:00;5.40;99.90
10583;DHT22;33679;51.218;6.786;2024-01-15T05:46:32;5.40;99.90
10583;DHT22;33679;51.218;6.786;2024-01-15T05:49:11;5.50;99.90
10583;DHT22;33679;51.218;6.786;2024-01-15T05:51:47;5.50;99.90
10583;DHT22;33679;51.218;6.786;2024-01-15T05:54:20;5.50;99.90
10583;DHT22;33679;51.218;6.786;2024-01-15T05:56:53;5.50;99.90
10583;DHT22;33679;51.218;6.786;2024-01-15T05:59:27;5.50;99.90
10583;DHT22;33679;51.218;6.786;2024-01-15T06:02:04;5.50;99.90
10583;DHT22;33679;51.218;6.786;2024-01-15T06:04:37;5.50;99.90
10583;DHT22;33679;51.218;6.786;2024-01-15T06:07:09;5.50;99.90
10583;DHT22;33679;51.218;6.786;2024-01-15T06:09:42;5.50;99.90
10583;DHT22;33679;51.218;6.786;2024-01-15T06:12:15;5.50;99.90
10583;DHT22;33679;51.218;6.786;2024-01-15T06:14:48;5.50;99.90
10583;DHT22;33679;51.218;6.786;2024-01-15T06:17:21;5.50;99.90
10583;DHT22;33679;51.218;6.786;2024-01-15T06:19:54;5.40;99.90
10583;DHT22;33679;51.218;6.786;2024-01-15T06:22:28;5.40;99.90
10583;DHT22;33679;51.218;6.786;2024-01-15T06:25:00;5.40;99.90
10583;DHT22;33679;51.218;6.786;2024-01-15T06:27:34;5.40;99.90
10583;DHT22;33679;51.218;6.786;2024-01-15T06:30:10;5.40;99.90
10583;DHT22;33679;51.218;6.786;2024-01-15T06:32:45;5.40;99.90
10583;DHT22;33679;51.218;6.786;2024-01-15T06:35:19;5.40;99.90
10583;DHT22;33679;51.218;6.786;2024-01-15T06:37:53;5.50;99.90
10583;DHT22;33679;51.218;6.786;2024-01-15T06:40:26;5.50;99.90
10583;DHT22;33679;51.218;6.786;2024-01-15T06:42:59;5.40;99.90
10583;DHT22;33679;51.218;6.786;2024-01-15T06:45:33;5.50;99.90
10583;DHT22;33679;51.218;6.786;2024-01-15T06:48:06;5.50;99.90
10583;DHT22;33679;51.218;6.786;2024-01-15T06:50:40;5.40;99.90
10583;DHT22;33679;51.218;6.786;2024-01-15T06:53:12;5.40;99.90
10583;DHT22;33679;51.218;6.786;2024-01-15T06:55:45;5.40;99.90
10583;DHT22;33679;51.218;6.786;2024-01-15T06:58:19;5.40;99.90
10583;DHT22;33679;51.218;6.786;2024-01-15T07:00:53;5.40;99.90
10583;DHT22;33679;51.218;6.786;2024-01-15T07:03:28;5.40;99.90
10583;DHT22;33679;51.218;6.786;2024-01-15T07:06:00;5.40;99.90
10583;DHT22;33679;51.218;6.786;2024-01-15T07:08:32;5.40;99.90
10583;DHT22;33679;51.218;6.786;2024-01-15T07:11:05;5.40;99.90
10583;DHT22;33679;51.218;6.786;2024-01-15T07:13:38;5.40;99.90
10583;DHT22;33679;51.218;6.786;2024-01-15T07:16:13;5.40;99.90
10583;DHT22;33679;51.218;6.786;2024-01-15T07:18:48;5.40;99.90
10583;DHT22;33679;51.218;6.786;2024-01-15T07:21:20;5.40;99.90
10583;DHT22;33679;51.218;6.786;2024-01-15T07:23:53;5.40;99.90
10583;DHT22;33679;51.218;6.786;2024-01-15T07:26:29;5.40;99.90
10583;DHT22;33679;51.218;6.786;2024-01-15T07:29:02;5.30;99.90
10583;DHT22;33679;51.218;6.786;2024-01-15T07:31:38;5.40;99.90
10583;DHT22;33679;51.218;6.786;2024-01-15T07:34:10;5.50;99.90
10583;DHT22;33679;51.218;6.786;2024-01-15T07:36:43;5.40;99.90
10583;DHT22;33679;51.218;6.786;2024-01-15T07:39:17;5.40;99.90
10583;DHT22;33679;51.218;6.786;2024-01-15T07:41:49;5.40;99.90
10583;DHT22;33679;51.218;6.786;2024-01-15T07:44:23;5.50;99.90
10583;DHT22;33679;51.218;6.786;2024-01-15T07:46:57;5.50;99.90
10583;DHT22;33679;51.218;6.786;2024-01-15T07:49:31;5.50;99.90
10583;DHT22;33679;51.218;6.786;2024-01-15T07:52:07;5.60;99.90
10583;DHT22;33679;51.218;6.786;2024-01-15T07:54:46;5.60;99.90
10583;DHT22;33679;51.218;6.786;2024-01-15T07:57:19;5.60;99.90
10583;DHT22;33679;51.218;6.786;2024-01-15T07:59:54;5.60;99.90
10583;DHT22;33679;51.218;6.786;2024-01-15T08:02:28;5.60;99.90
10583;DHT22;33679;51.218;6.786;2024-01-15T08:05:01;5.60;99.90
10583;DHT22;33679;51.218;6.786;2024-01-15T08:07:37;5.60;99.90
10583;DHT22;33679;51.218;6.786;2024-01-15T08:10:10;5.50;99.90
10583;DHT22;33679;51.218;6.786;2024-01-15T08:12:46;5.50;99.90
10583;DHT22;33679;51.218;6.786;2024-01-15T08:15:50;5.60;99.90
10583;DHT22;33679;51.218;6.786;2024-01-15T08:18:34;5.60;99.90
10583;DHT22;33679;51.218;6.786;2024-01-15T08:21:07;5.60;99.90
10583;DHT22;33679;51.218;6.786;2024-01-15T08:23:43;5.60;99.90
10583;DHT22;33679;51.218;6.786;2024-01-15T08:26:16;5.60;99.90
10583;DHT22;33679;51.218;6.786;2024-01-15T08:28:49;5.60;99.90
10583;DHT22;33679;51.218;6.786;2024-01-15T08:31:23;5.60;99.90
10583;DHT22;33679;51.218;6.786;2024-01-15T08:33:57;5.60;99.90
10583;DHT22;33679;51.218;6.786;2024-01-15T08:36:31;5.60;99.90
10583;DHT22;33679;51.218;6.786;2024-01-15T08:39:06;5.60;99.90
10583;DHT22;33679;51.218;6.786;2024-01-15T08:41:40;5.60;99.90
10583;DHT22;33679;51.218;6.786;2024-01-15T08:44:13;5.50;99.90
10583;DHT22;33679;51.218;6.786;2024-01-15T08:46:47;5.50;99.90
10583;DHT22;33679;51.218;6.786;2024-01-15T08:49:28;5.40;99.90
10583;DHT22;33679;51.218;6.786;2024-01-15T08:52:04;5.40;99.90
10583;DHT22;33679;51.218;6.786;2024-01-15T08:54:38;5.30;99.90
10583;DHT22;33679;51.218;6.786;2024-01-15T09:00:16;5.30;99.90
10583;DHT22;33679;51.218;6.786;2024-01-15T09:02:50;5.30;99.90
10583;DHT22;33679;51.218;6.786;2024-01-15T09:05:31;5.20;99.90
10583;DHT22;33679;51.218;6.786;2024-01-15T09:08:05;5.20;99.90
10583;DHT22;33679;51.218;6.786;2024-01-15T09:10:45;5.20;99.90
10583;DHT22;33679;51.218;6.786;2024-01-15T09:13:19;5.20;99.90
10583;DHT22;33679;51.218;6.786;2024-01-15T09:15:53;5.20;99.90
10583;DHT22;33679;51.218;6.786;2024-01-15T09:18:34;5.20;99.90
10583;DHT22;33679;51.218;6.786;2024-01-15T09:21:14;5.20;99.90
10583;DHT22;33679;51.218;6.786;2024-01-15T09:23:47;5.20;99.90
10583;DHT22;33679;51.218;6.786;2024-01-15T09:26:20;5.20;99.90
10583;DHT22;33679;51.218;6.786;2024-01-15T09:28:53;5.20;99.90
10583;DHT22;33679;51.218;6.786;2024-01-15T09:31:28;5.20;99.90
10583;DHT22;33679;51.218;6.786;2024-01-15T09:34:01;5.20;99.90
10583;DHT22;33679;51.218;6.786;2024-01-15T09:36:41;5.20;99.90
10583;DHT22;33679;51.218;6.786;2024-01-15T09:39:16;5.20;99.90
10583;DHT22;33679;51.218;6.786;2024-01-15T09:41:54;5.20;99.90
10583;DHT22;33679;51.218;6.786;2024-01-15T09:44:28;5.20;99.90
10583;DHT22;33679;51.218;6.786;2024-01-15T09:47:04;5.20;99.90
10583;DHT22;33679;51.218;6.786;2024-01-15T09:49:38;5.10;99.90
10583;DHT22;33679;51.218;6.786;2024-01-15T09:52:19;5.20;99.90
10583;DHT22;33679;51.218;6.786;2024-01-15T09:54:54;5.20;99.90
10583;DHT22;33679;51.218;6.786;2024-01-15T09:57:30;5.20;99.90
10583;DHT22;33679;51.218;6.786;2024-01-15T10:00:07;5.20;99.90
10583;DHT22;33679;51.218;6.786;2024-01-15T10:02:42;5.10;99.90
10583;DHT22;33679;51.218;6.786;2024-01-15T10:05:15;5.10;99.90
10583;DHT22;33679;51.218;6.786;2024-01-15T10:07:52;5.10;99.90
10583;DHT22;33679;51.218;6.786;2024-01-15T10:10:28;5.20;99.90
10583;DHT22;33679;51.218;6.786;2024-01-15T10:13:06;5.10;99.90
10583;DHT22;33679;51.218;6.786;2024-01-15T10:15:46;5.20;99.90
10583;DHT22;33679;51.218;6.786;2024-01-15T10:18:20;5.40;99.90
10583;DHT22;33679;51.218;6.786;2024-01-15T10:20:53;5.40;99.90
10583;DHT22;33679;51.218;6.786;2024-01-15T10:23:34;5.40;99.90
10583;DHT22;33679;51.218;6.786;2024-01-15T10:26:07;5.40;99.90
10583;DHT22;33679;51.218;6.786;2024-01-15T10:28:43;5.40;99.90
10583;DHT22;33679;51.218;6.786;2024-01-15T10:31:16;5.50;99.90
10583;DHT22;33679;51.218;6.786;2024-01-15T10:34:09;5.40;99.90
10583;DHT22;33679;51.218;6.786;2024-01-15T10:36:45;5.50;99.90
10583;DHT22;33679;51.218;6.786;2024-01-15T10:39:28;5.50;99.90
10583;DHT22;33679;51.218;6.786;2024-01-15T10:42:03;5.50;99.90
10583;DHT22;33679;51.218;6.786;2024-01-15T10:44:36;5.50;99.90
10583;DHT22;33679;51.218;6.786;2024-01-15T10:47:12;5.40;99.90
10583;DHT22;33679;51.218;6.786;2024-01-15T10:49:47;5.40;99.90
10583;DHT22;33679;51.218;6.786;2024-01-15T10:52:20;5.40;99.90
10583;DHT22;33679;51.218;6.786;2024-01-15T10:54:58;5.40;99.90
10583;DHT22;33679;51.218;6.786;2024-01-15T10:57:32;5.40;99.90
10583;DHT22;33679;51.218;6.786;2024-01-15T11:00:10;5.40;99.90
10583;DHT22;33679;51.218;6.786;2024-01-15T11:02:46;5.40;99.90
10583;DHT22;33679;51.218;6.786;2024-01-15T11:05:26;5.50;99.90
10583;DHT22;33679;51.218;6.786;2024-01-15T11:07:59;5.50;99.90
10583;DHT22;33679;51.218;6.786;2024-01-15T11:10:59;5.60;99.90
10583;DHT22;33679;51.218;6.786;2024-01-15T11:13:42;5.60;99.90
10583;DHT22;33679;51.218;6.786;2024-01-15T11:16:16;5.60;99.90
10583;DHT22;33679;51.218;6.786;2024-01-15T11:19:05;5.60;99.90
10583;DHT22;33679;51.218;6.786;2024-01-15T11:21:42;5.60;99.90
10583;DHT22;33679;51.218;6.786;2024-01-15T11:24:34;5.70;99.90
10583;DHT22;33679;51.218;6.786;2024-01-15T11:27:16;5.70;99.90
10583;DHT22;33679;51.218;6.786;2024-01-15T11:30:14;5.80;99.90
10583;DHT22;33679;51.218;6.786;2024-01-15T11:32:56;5.90;99.90
10583;DHT22;33679;51.218;6.786;2024-01-15T11:35:49;5.90;99.90
10583;DHT22;33679;51.218;6.786;2024-01-15T11:38:30;6.00;99.90
10583;DHT22;33679;51.218;6.786;2024-01-15T11:41:15;6.00;99.90
10583;DHT22;33679;51.218;6.786;2024-01-15T11:43:54;6.00;99.90
10583;DHT22;33679;51.218;6.786;2024-01-15T11:46:40;6.10;99.90
10583;DHT22;33679;51.218;6.786;2024-01-15T11:49:31;6.10;99.90
10583;DHT22;33679;51.218;6.786;2024-01-15T11:52:12;6.20;99.90
10583;DHT22;33679;51.218;6.786;2024-01-15T11:55:00;6.20;99.90
10583;DHT22;33679;51.218;6.786;2024-01-15T11:57:41;6.30;99.90
10583;DHT22;33679;51.218;6.786;2024-01-15T12:00:23;6.20;99.90
10583;DHT22;33679;51.218;6.786;2024-01-15T12:02:59;6.20;99.90
10583;DHT22;33679;51.218;6.786;2024-01-15T12:05:41;6.30;99.90
10583;DHT22;33679;51.218;6.786;2024-01-15T12:08:14;6.30;99.90
10583;DHT22;33679;51.218;6.786;2024-01-15T12:10:56;6.40;99.90
10583;DHT22;33679;51.218;6.786;2024-01-15T12:13:32;6.40;99.90
10583;DHT22;33679;51.218;6.786;2024-01-15T12:16:17;6.40;99.90
10583;DHT22;33679;51.218;6.786;2024-01-15T12:18:54;6.30;99.90
10583;DHT22;33679;51.218;6.786;2024-01-15T12:21:27;6.30;99.90
10583;DHT22;33679;51.218;6.786;2024-01-15T12:24:03;6.30;99.90
10583;DHT22;33679;51.218;6.786;2024-01-15T12:26:39;6.30;99.90
10583;DHT22;33679;51.218;6.786;2024-01-15T12:29:12;6.20;99.90
10583;DHT22;33679;51.218;6.786;2024-01-15T12:31:48;6.20;99.90
10583;DHT22;33679;51.218;6.786;2024-01-15T12:34:24;6.20;99.90
10583;DHT22;33679;51.218;6.786;2024-01-15T12:36:58;6.20;99.90
10583;DHT22;33679;51.218;6.786;2024-01-15T12:39:34;6.20;99.90
10583;DHT22;33679;51.218;6.786;2024-01-15T12:42:14;6.20;99.90
10583;DHT22;33679;51.218;6.786;2024-01-15T12:44:48;6.20;99.90
10583;DHT22;33679;51.218;6.786;2024-01-15T12:47:23;6.10;99.90
10583;DHT22;33679;51.218;6.786;2024-01-15T12:49:58;6.10;99.90
10583;DHT22;33679;51.218;6.786;2024-01-15T12:52:35;6.10;99.90
10583;DHT22;33679;51.218;6.786;2024-01-15T12:55:14;6.20;99.90
10583;DHT22;33679;51.218;6.786;2024-01-15T12:57:49;6.20;99.90
10583;DHT22;33679;51.218;6.786;2024-01-15T13:00:48;6.20;99.90
10583;DHT22;33679;51.218;6.786;2024-01-15T13:03:24;6.20;99.90
10583;DHT22;33679;51.218;6.786;2024-01-15T13:06:03;6.20;99.90
10583;DHT22;33679;51.218;6.786;2024-01-15T13:08:38;6.10;99.90
10583;DHT22;33679;51.218;6.786;2024-01-15T13:11:11;6.10;99.90
10583;DHT22;33679;51.218;6.786;2024-01-15T13:13:47;6.10;99.90
10583;DHT22;33679;51.218;6.786;2024-01-15T13:16:22;6.20;99.90
10583;DHT22;33679;51.218;6.786;2024-01-15T13:19:00;6.20;99.90
10583;DHT22;33679;51.218;6.786;2024-01-15T13:21:36;6.30;99.90
10583;DHT22;33679;51.218;6.786;2024-01-15T13:24:21;6.30;99.90
10583;DHT22;33679;51.218;6.786;2024-01-15T13:26:57;6.30;99.90
10583;DHT22;33679;51.218;6.786;2024-01-15T13:29:40;6.30;99.90
10583;DHT22;33679;51.218;6.786;2024-01-15T13:32:21;6.20;99.90
10583;DHT22;33679;51.218;6.786;2024-01-15T13:34:57;6.20;99.90
10583;DHT22;33679;51.218;6.786;2024-01-15T13:37:36;6.20;99.90
10583;DHT22;33679;51.218;6.786;2024-01-15T13:40:23;6.10;99.90
10583;DHT22;33679;51.218;6.786;2024-01-15T13:43:02;6.10;99.90
10583;DHT22;33679;51.218;6.786;2024-01-15T13:45:45;6.10;99.90
10583;DHT22;33679;51.218;6.786;2024-01-15T13:48:22;6.00;99.90
10583;DHT22;33679;51.218;6.786;2024-01-15T13:51:01;5.90;99.90
10583;DHT22;33679;51.218;6.786;2024-01-15T13:53:39;5.90;99.90
10583;DHT22;33679;51.218;6.786;2024-01-15T13:56:15;5.90;99.90
10583;DHT22;33679;51.218;6.786;2024-01-15T13:58:49;5.90;99.90
10583;DHT22;33679;51.218;6.786;2024-01-15T14:01:24;5.90;99.90
10583;DHT22;33679;51.218;6.786;2024-01-15T14:03:57;5.90;99.90
10583;DHT22;33679;51.218;6.786;2024-01-15T14:06:32;5.90;99.90
10583;DHT22;33679;51.218;6.786;2024-01-15T14:09:08;5.90;99.90
10583;DHT22;33679;51.218;6.786;2024-01-15T14:11:41;5.80;99.90
10583;DHT22;33679;51.218;6.786;2024-01-15T14:14:20;5.80;99.90
10583;DHT22;33679;51.218;6.786;2024-01-15T14:16:55;5.80;99.90
10583;DHT22;33679;51.218;6.786;2024-01-15T14:19:30;5.80;99.90
10583;DHT22;33679;51.218;6.786;2024-01-15T14:22:04;5.80;99.90
10583;DHT22;33679;51.218;6.786;2024-01-15T14:24:40;5.80;99.90
10583;DHT22;33679;51.218;6.786;2024-01-15T14:27:19;5.70;99.90
10583;DHT22;33679;51.218;6.786;2024-01-15T14:29:52;5.70;99.90
10583;DHT22;33679;51.218;6.786;2024-01-15T14:32:33;5.70;99.90
10583;DHT22;33679;51.218;6.786;2024-01-15T14:35:18;5.70;99.90
10583;DHT22;33679;51.218;6.786;2024-01-15T14:42:21;5.90;99.90
10583;DHT22;33679;51.218;6.786;2024-01-15T14:45:16;6.00;99.90
10583;DHT22;33679;51.218;6.786;2024-01-15T14:48:19;6.00;99.90
10583;DHT22;33679;51.218;6.786;2024-01-15T14:50:58;5.90;99.90
10583;DHT22;33679;51.218;6.786;2024-01-15T14:53:33;5.90;99.90
10583;DHT22;33679;51.218;6.786;2024-01-15T14:56:08;5.90;99.90
10583;DHT22;33679;51.218;6.786;2024-01-15T14:58:46;5.80;99.90
10583;DHT22;33679;51.218;6.786;2024-01-15T15:01:19;5.90;99.90
10583;DHT22;33679;51.218;6.786;2024-01-15T15:04:01;5.80;99.90
10583;DHT22;33679;51.218;6.786;2024-01-15T15:06:35;5.80;99.90
10583;DHT22;33679;51.218;6.786;2024-01-15T15:09:12;5.80;99.90
10583;DHT22;33679;51.218;6.786;2024-01-15T15:11:46;5.80;99.90
10583;DHT22;33679;51.218;6.786;2024-01-15T15:14:21;5.70;99.90
10583;DHT22;33679;51.218;6.786;2024-01-15T15:16:53;5.70;99.90
10583;DHT22;33679;51.218;6.786;2024-01-15T15:19:27;5.70;99.90
10583;DHT22;33679;51.218;6.786;2024-01-15T15:22:06;5.70;99.90
10583;DHT22;33679;51.218;6.786;2024-01-15T15:24:44;5.70;99.90
10583;DHT22;33679;51.218;6.786;2024-01-15T15:27:17;5.60;99.90
10583;DHT22;33679;51.218;6.786;2024-01-15T15:29:52;5.50;99.90
10583;DHT22;33679;51.218;6.786;2024-01-15T15:32:28;5.50;99.90
10583;DHT22;33679;51.218;6.786;2024-01-15T15:35:08;5.50;99.90
10583;DHT22;33679;51.218;6.786;2024-01-15T15:37:42;5.50;99.90
10583;DHT22;33679;51.218;6.786;2024-01-15T15:40:24;5.50;99.90
10583;DHT22;33679;51.218;6.786;2024-01-15T15:43:02;5.50;99.90
10583;DHT22;33679;51.218;6.786;2024-01-15T15:45:37;5.40;99.90
10583;DHT22;33679;51.218;6.786;2024-01-15T15:48:23;5.40;99.90
10583;DHT22;33679;51.218;6.786;2024-01-15T15:51:03;5.30;99.90
10583;DHT22;33679;51.218;6.786;2024-01-15T15:53:37;5.30;99.90
10583;DHT22;33679;51.218;6.786;2024-01-15T15:56:14;5.20;99.90
10583;DHT22;33679;51.218;6.786;2024-01-15T15:58:52;5.30;99.90
10583;DHT22;33679;51.218;6.786;2024-01-15T16:01:34;5.30;99.90
10583;DHT22;33679;51.218;6.786;2024-01-15T16:04:17;5.30;99.90
10583;DHT22;33679;51.218;6.786;2024-01-15T16:06:50;5.30;99.90
10583;DHT22;33679;51.218;6.786;2024-01-15T16:09:27;5.30;99.90
10583;DHT22;33679;51.218;6.786;2024-01-15T16:12:04;5.30;99.90
10583;DHT22;33679;51.218;6.786;2024-01-15T16:14:37;5.30;99.90
10583;DHT22;33679;51.218;6.786;2024-01-15T16:17:15;5.30;99.90
10583;DHT22;33679;51.218;6.786;2024-01-15T16:19:50;5.30;99.90
10583;DHT22;33679;51.218;6.786;2024-01-15T16:22:28;5.30;99.90
10583;DHT22;33679;51.218;6.786;2024-01-15T16:25:09;5.30;99.90
10583;DHT22;33679;51.218;6.786;2024-01-15T16:27:44;5.30;99.90
10583;DHT22;33679;51.218;6.786;2024-01-15T16:30:17;5.30;99.90
10583;DHT22;33679;51.218;6.786;2024-01-15T16:32:54;5.30;99.90
10583;DHT22;33679;51.218;6.786;2024-01-15T16:35:27;5.30;99.90
10583;DHT22;33679;51.218;6.786;2024-01-15T16:38:01;5.40;99.90
10583;DHT22;33679;51.218;6.786;2024-01-15T16:40:36;5.30;99.90
10583;DHT22;33679;51.218;6.786;2024-01-15T16:43:13;5.40;99.90
10583;DHT22;33679;51.218;6.786;2024-01-15T16:45:45;5.40;99.90
10583;DHT22;33679;51.218;6.786;2024-01-15T16:48:28;5.40;99.90
10583;DHT22;33679;51.218;6.786;2024-01-15T16:51:30;5.40;99.90